sensor_id;sensor_type;location;lat;lon;timestamp;pressure;altitude;pressure_sealevel;temperature;humidity
71151;BME280;59071;42.138;24.768;2023-03-14T00:02:02;100150.94;;;4.61;51.79
71151;BME280;59071;42.138;24.768;2023-03-14T00:04:27;100152.84;;;4.77;51.14
71151;BME280;59071;42.138;24.768;2023-03-14T00:06:52;100137.88;;;4.52;51.92
71151;BME280;59071;42.138;24.768;2023-03-14T00:09:18;100140.75;;;4.66;51.81
71151;BME280;59071;42.138;24.768;2023-03-14T00:11:43;100144.56;;;4.72;51.54
71151;BME280;59071;42.138;24.768;2023-03-14T00:14:08;100132.84;;;4.66;51.99
71151;BME280;59071;42.138;24.768;2023-03-14T00:16:33;100126.84;;;4.56;51.79
71151;BME280;59071;42.138;24.768;2023-03-14T00:18:59;100125.88;;;4.57;53.29
71151;BME280;59071;42.138;24.768;2023-03-14T00:21:24;100124.41;;;4.37;52.96
71151;BME280;59071;42.138;24.768;2023-03-14T00:23:50;100120.34;;;4.42;52.88
71151;BME280;59071;42.138;24.768;2023-03-14T00:26:16;100110.81;;;4.23;52.99
71151;BME280;59071;42.138;24.768;2023-03-14T00:28:42;100108.94;;;3.98;53.63
71151;BME280;59071;42.138;24.768;2023-03-14T00:31:08;100111.44;;;4.17;53.41
71151;BME280;59071;42.138;24.768;2023-03-14T00:33:34;100107.41;;;4.13;54.25
71151;BME280;59071;42.138;24.768;2023-03-14T00:36:01;100106.41;;;4.06;54.39
71151;BME280;59071;42.138;24.768;2023-03-14T00:38:26;100104.88;;;3.67;55.01
71151;BME280;59071;42.138;24.768;2023-03-14T00:40:52;100093.91;;;3.90;54.28
71151;BME280;59071;42.138;24.768;2023-03-14T00:43:18;100095.41;;;4.10;53.75
71151;BME280;59071;42.138;24.768;2023-03-14T00:45:43;100093.16;;;4.42;52.80
71151;BME280;59071;42.138;24.768;2023-03-14T00:48:09;100084.38;;;4.59;52.15
71151;BME280;59071;42.138;24.768;2023-03-14T00:50:34;100083.31;;;4.52;53.21
71151;BME280;59071;42.138;24.768;2023-03-14T00:52:59;100087.78;;;4.25;53.16
71151;BME280;59071;42.138;24.768;2023-03-14T00:55:25;100083.28;;;4.44;53.08
71151;BME280;59071;42.138;24.768;2023-03-14T00:57:50;100079.19;;;4.23;53.69
71151;BME280;59071;42.138;24.768;2023-03-14T01:00:15;100079.16;;;4.15;53.49
71151;BME280;59071;42.138;24.768;2023-03-14T01:02:41;100078.44;;;4.13;53.86
71151;BME280;59071;42.138;24.768;2023-03-14T01:05:06;100075.81;;;4.13;54.02
71151;BME280;59071;42.138;24.768;2023-03-14T01:07:32;100059.25;;;4.21;53.67
71151;BME280;59071;42.138;24.768;2023-03-14T01:09:57;100063.78;;;4.10;54.33
71151;BME280;59071;42.138;24.768;2023-03-14T01:12:23;100063.16;;;4.17;53.81
71151;BME280;59071;42.138;24.768;2023-03-14T01:14:48;100058.94;;;4.24;53.06
71151;BME280;59071;42.138;24.768;2023-03-14T01:17:13;100053.16;;;4.20;53.39
71151;BME280;59071;42.138;24.768;2023-03-14T01:19:39;100054.31;;;4.00;53.84
71151;BME280;59071;42.138;24.768;2023-03-14T01:22:04;100047.41;;;3.81;54.05
71151;BME280;59071;42.138;24.768;2023-03-14T01:24:29;100051.25;;;3.86;54.81
71151;BME280;59071;42.138;24.768;2023-03-14T01:26:55;100043.66;;;3.83;54.89
71151;BME280;59071;42.138;24.768;2023-03-14T01:29:20;100050.66;;;3.75;54.99
71151;BME280;59071;42.138;24.768;2023-03-14T01:31:45;100047.88;;;3.94;54.43
71151;BME280;59071;42.138;24.768;2023-03-14T01:34:10;100047.34;;;3.90;54.48
71151;BME280;59071;42.138;24.768;2023-03-14T01:36:36;100048.50;;;3.70;55.04
71151;BME280;59071;42.138;24.768;2023-03-14T01:39:02;100047.28;;;3.82;55.11
71151;BME280;59071;42.138;24.768;2023-03-14T01:41:27;100040.69;;;4.04;54.48
71151;BME280;59071;42.138;24.768;2023-03-14T01:43:53;100045.47;;;3.65;55.01
71151;BME280;59071;42.138;24.768;2023-03-14T01:46:23;100045.50;;;3.83;54.71
71151;BME280;59071;42.138;24.768;2023-03-14T01:51:16;100039.53;;;3.63;55.81
71151;BME280;59071;42.138;24.768;2023-03-14T01:53:42;100032.84;;;3.68;56.05
71151;BME280;59071;42.138;24.768;2023-03-14T01:56:09;100038.34;;;3.57;56.28
71151;BME280;59071;42.138;24.768;2023-03-14T01:58:36;100033.53;;;3.52;56.05
71151;BME280;59071;42.138;24.768;2023-03-14T02:01:02;100027.19;;;3.63;56.08
71151;BME280;59071;42.138;24.768;2023-03-14T02:03:28;100026.31;;;3.55;56.49
71151;BME280;59071;42.138;24.768;2023-03-14T02:05:56;100023.00;;;3.70;56.17
71151;BME280;59071;42.138;24.768;2023-03-14T02:08:22;100021.72;;;3.75;56.55
71151;BME280;59071;42.138;24.768;2023-03-14T02:10:49;100025.66;;;3.52;56.59
71151;BME280;59071;42.138;24.768;2023-03-14T02:13:16;100022.38;;;3.41;57.09
71151;BME280;59071;42.138;24.768;2023-03-14T02:15:42;100024.19;;;3.40;57.69
71151;BME280;59071;42.138;24.768;2023-03-14T02:18:07;100020.81;;;3.48;57.39
71151;BME280;59071;42.138;24.768;2023-03-14T02:23:01;100015.78;;;3.55;56.90
71151;BME280;59071;42.138;24.768;2023-03-14T02:28:10;100010.53;;;3.37;57.61
71151;BME280;59071;42.138;24.768;2023-03-14T02:30:36;100015.25;;;3.33;56.94
71151;BME280;59071;42.138;24.768;2023-03-14T02:33:11;100016.38;;;3.66;55.84
71151;BME280;59071;42.138;24.768;2023-03-14T02:38:31;100021.59;;;3.58;56.01
71151;BME280;59071;42.138;24.768;2023-03-14T02:40:58;100017.91;;;3.51;57.33
71151;BME280;59071;42.138;24.768;2023-03-14T02:43:23;100011.22;;;3.57;56.28
71151;BME280;59071;42.138;24.768;2023-03-14T02:45:49;100016.16;;;3.60;56.36
71151;BME280;59071;42.138;24.768;2023-03-14T02:48:16;100021.66;;;3.30;57.45
71151;BME280;59071;42.138;24.768;2023-03-14T02:50:43;100018.34;;;3.28;57.46
71151;BME280;59071;42.138;24.768;2023-03-14T02:53:11;100024.06;;;3.42;57.30
71151;BME280;59071;42.138;24.768;2023-03-14T02:55:37;100033.38;;;3.36;57.09
71151;BME280;59071;42.138;24.768;2023-03-14T02:58:02;100026.91;;;3.30;57.00
71151;BME280;59071;42.138;24.768;2023-03-14T03:00:27;100021.44;;;3.42;58.15
71151;BME280;59071;42.138;24.768;2023-03-14T03:02:53;100027.53;;;3.60;57.80
71151;BME280;59071;42.138;24.768;2023-03-14T03:05:18;100036.31;;;3.69;57.17
71151;BME280;59071;42.138;24.768;2023-03-14T03:07:43;100030.72;;;3.54;57.92
71151;BME280;59071;42.138;24.768;2023-03-14T03:10:09;100037.88;;;3.26;57.87
71151;BME280;59071;42.138;24.768;2023-03-14T03:12:34;100034.13;;;3.46;58.26
71151;BME280;59071;42.138;24.768;2023-03-14T03:15:00;100034.88;;;3.57;57.71
71151;BME280;59071;42.138;24.768;2023-03-14T03:17:25;100036.75;;;3.46;58.11
71151;BME280;59071;42.138;24.768;2023-03-14T03:19:50;100038.72;;;3.44;58.12
71151;BME280;59071;42.138;24.768;2023-03-14T03:22:15;100037.28;;;3.50;57.69
71151;BME280;59071;42.138;24.768;2023-03-14T03:24:41;100033.06;;;3.57;58.23
71151;BME280;59071;42.138;24.768;2023-03-14T03:27:06;100023.53;;;3.38;58.45
71151;BME280;59071;42.138;24.768;2023-03-14T03:29:31;100035.63;;;3.31;58.53
71151;BME280;59071;42.138;24.768;2023-03-14T03:31:57;100026.13;;;3.02;59.14
71151;BME280;59071;42.138;24.768;2023-03-14T03:34:22;100025.22;;;2.93;59.95
71151;BME280;59071;42.138;24.768;2023-03-14T03:36:47;100018.50;;;3.27;59.06
71151;BME280;59071;42.138;24.768;2023-03-14T03:39:12;100024.69;;;3.08;59.16
71151;BME280;59071;42.138;24.768;2023-03-14T03:41:38;100028.13;;;3.18;58.92
71151;BME280;59071;42.138;24.768;2023-03-14T03:44:03;100026.91;;;3.12;58.81
71151;BME280;59071;42.138;24.768;2023-03-14T03:46:28;100026.97;;;3.21;58.59
71151;BME280;59071;42.138;24.768;2023-03-14T03:48:54;100032.06;;;3.04;58.86
71151;BME280;59071;42.138;24.768;2023-03-14T03:51:20;100025.75;;;2.97;59.20
71151;BME280;59071;42.138;24.768;2023-03-14T03:53:45;100030.41;;;2.76;60.28
71151;BME280;59071;42.138;24.768;2023-03-14T03:56:10;100034.13;;;3.10;60.51
71151;BME280;59071;42.138;24.768;2023-03-14T03:58:36;100030.88;;;3.17;59.99
71151;BME280;59071;42.138;24.768;2023-03-14T04:01:03;100015.56;;;3.30;59.78
71151;BME280;59071;42.138;24.768;2023-03-14T04:03:29;100014.31;;;2.88;60.61
71151;BME280;59071;42.138;24.768;2023-03-14T04:06:01;100012.22;;;2.64;60.81
71151;BME280;59071;42.138;24.768;2023-03-14T04:08:27;100013.84;;;2.38;62.14
71151;BME280;59071;42.138;24.768;2023-03-14T04:10:56;100008.41;;;2.49;62.36
71151;BME280;59071;42.138;24.768;2023-03-14T04:13:21;100006.25;;;2.34;61.97
71151;BME280;59071;42.138;24.768;2023-03-14T04:15:47;100010.56;;;2.26;63.35
71151;BME280;59071;42.138;24.768;2023-03-14T04:18:12;100002.78;;;2.44;62.27
71151;BME280;59071;42.138;24.768;2023-03-14T04:20:37;100002.66;;;2.35;62.55
71151;BME280;59071;42.138;24.768;2023-03-14T04:23:02;100001.59;;;2.56;62.25
71151;BME280;59071;42.138;24.768;2023-03-14T04:25:28;99998.28;;;2.54;62.31
71151;BME280;59071;42.138;24.768;2023-03-14T04:27:53;100000.41;;;2.68;61.58
71151;BME280;59071;42.138;24.768;2023-03-14T04:30:18;100002.16;;;2.60;61.66
71151;BME280;59071;42.138;24.768;2023-03-14T04:32:43;99995.16;;;2.41;61.65
71151;BME280;59071;42.138;24.768;2023-03-14T04:35:09;99992.41;;;2.42;62.98
71151;BME280;59071;42.138;24.768;2023-03-14T04:37:34;99990.31;;;2.46;60.99
71151;BME280;59071;42.138;24.768;2023-03-14T04:39:59;99990.63;;;2.33;61.16
71151;BME280;59071;42.138;24.768;2023-03-14T04:42:25;99995.66;;;2.17;61.94
71151;BME280;59071;42.138;24.768;2023-03-14T04:44:50;99997.06;;;2.11;62.33
71151;BME280;59071;42.138;24.768;2023-03-14T04:47:15;99990.09;;;2.29;62.61
71151;BME280;59071;42.138;24.768;2023-03-14T04:49:41;99997.28;;;2.27;61.97
71151;BME280;59071;42.138;24.768;2023-03-14T04:52:06;99995.25;;;2.21;61.82
71151;BME280;59071;42.138;24.768;2023-03-14T04:54:31;100002.81;;;2.24;61.97
71151;BME280;59071;42.138;24.768;2023-03-14T04:56:57;100003.28;;;2.57;60.65
71151;BME280;59071;42.138;24.768;2023-03-14T04:59:22;100006.81;;;2.66;59.97
71151;BME280;59071;42.138;24.768;2023-03-14T05:01:47;100004.38;;;2.54;60.22
71151;BME280;59071;42.138;24.768;2023-03-14T05:04:14;100009.06;;;2.88;60.40
71151;BME280;59071;42.138;24.768;2023-03-14T05:06:40;100008.38;;;3.04;59.18
71151;BME280;59071;42.138;24.768;2023-03-14T05:09:07;100013.44;;;2.98;59.32
71151;BME280;59071;42.138;24.768;2023-03-14T05:11:32;100011.66;;;3.34;58.89
71151;BME280;59071;42.138;24.768;2023-03-14T05:13:57;100021.78;;;3.65;58.26
71151;BME280;59071;42.138;24.768;2023-03-14T05:16:23;100020.97;;;3.46;60.08
71151;BME280;59071;42.138;24.768;2023-03-14T05:18:48;100019.44;;;3.80;58.41
71151;BME280;59071;42.138;24.768;2023-03-14T05:21:13;100025.09;;;4.11;57.51
71151;BME280;59071;42.138;24.768;2023-03-14T05:23:39;100023.94;;;4.40;56.69
71151;BME280;59071;42.138;24.768;2023-03-14T05:26:04;100024.56;;;4.68;56.15
71151;BME280;59071;42.138;24.768;2023-03-14T05:28:29;100027.53;;;5.16;55.05
71151;BME280;59071;42.138;24.768;2023-03-14T05:30:55;100033.75;;;5.74;53.18
71151;BME280;59071;42.138;24.768;2023-03-14T05:33:20;100026.81;;;5.97;52.64
71151;BME280;59071;42.138;24.768;2023-03-14T05:35:45;100033.06;;;5.88;53.85
71151;BME280;59071;42.138;24.768;2023-03-14T05:38:11;100034.72;;;5.73;53.63
71151;BME280;59071;42.138;24.768;2023-03-14T05:40:36;100029.78;;;6.19;52.54
71151;BME280;59071;42.138;24.768;2023-03-14T05:43:01;100028.97;;;6.66;49.96
71151;BME280;59071;42.138;24.768;2023-03-14T05:45:27;100032.25;;;6.76;49.64
71151;BME280;59071;42.138;24.768;2023-03-14T05:47:52;100000.13;;;6.48;49.42
71151;BME280;59071;42.138;24.768;2023-03-14T05:50:17;100027.13;;;6.75;57.27
71151;BME280;59071;42.138;24.768;2023-03-14T05:52:43;100016.06;;;7.11;48.59
71151;BME280;59071;42.138;24.768;2023-03-14T05:55:08;100025.44;;;7.13;47.54
71151;BME280;59071;42.138;24.768;2023-03-14T05:57:33;100027.78;;;7.16;47.83
71151;BME280;59071;42.138;24.768;2023-03-14T05:59:59;100036.44;;;7.33;46.87
71151;BME280;59071;42.138;24.768;2023-03-14T06:02:24;100028.97;;;7.37;47.27
71151;BME280;59071;42.138;24.768;2023-03-14T06:04:49;100031.38;;;7.70;46.13
71151;BME280;59071;42.138;24.768;2023-03-14T06:07:14;100027.00;;;7.54;46.36
71151;BME280;59071;42.138;24.768;2023-03-14T06:09:40;100029.50;;;8.31;51.20
71151;BME280;59071;42.138;24.768;2023-03-14T06:12:05;100028.72;;;8.46;46.88
71151;BME280;59071;42.138;24.768;2023-03-14T06:14:31;100023.91;;;9.00;45.23
71151;BME280;59071;42.138;24.768;2023-03-14T06:16:56;100020.44;;;9.58;42.72
71151;BME280;59071;42.138;24.768;2023-03-14T06:19:24;100016.09;;;9.14;42.14
71151;BME280;59071;42.138;24.768;2023-03-14T06:21:49;100013.94;;;8.13;44.44
71151;BME280;59071;42.138;24.768;2023-03-14T06:24:14;100026.00;;;9.42;43.28
71151;BME280;59071;42.138;24.768;2023-03-14T06:26:40;100015.97;;;10.36;40.68
71151;BME280;59071;42.138;24.768;2023-03-14T06:29:05;100006.09;;;11.27;39.75
71151;BME280;59071;42.138;24.768;2023-03-14T06:31:30;100001.84;;;11.66;38.44
71151;BME280;59071;42.138;24.768;2023-03-14T06:33:56;100009.47;;;11.82;37.24
71151;BME280;59071;42.138;24.768;2023-03-14T06:36:21;100004.94;;;11.69;38.49
71151;BME280;59071;42.138;24.768;2023-03-14T06:38:47;100004.94;;;12.03;37.37
71151;BME280;59071;42.138;24.768;2023-03-14T06:41:12;100007.56;;;12.29;36.67
71151;BME280;59071;42.138;24.768;2023-03-14T06:43:37;100009.88;;;11.99;37.80
71151;BME280;59071;42.138;24.768;2023-03-14T06:46:02;100008.63;;;12.94;35.91
71151;BME280;59071;42.138;24.768;2023-03-14T06:48:28;100021.66;;;12.70;36.00
71151;BME280;59071;42.138;24.768;2023-03-14T06:50:53;100017.84;;;13.43;35.35
71151;BME280;59071;42.138;24.768;2023-03-14T06:53:18;100018.94;;;13.67;34.30
71151;BME280;59071;42.138;24.768;2023-03-14T06:55:44;100008.34;;;13.79;33.97
71151;BME280;59071;42.138;24.768;2023-03-14T06:58:10;100002.91;;;14.73;33.19
71151;BME280;59071;42.138;24.768;2023-03-14T07:00:36;100003.63;;;15.29;31.94
71151;BME280;59071;42.138;24.768;2023-03-14T07:03:01;99989.06;;;15.36;31.36
71151;BME280;59071;42.138;24.768;2023-03-14T07:05:26;99988.78;;;15.14;31.83
71151;BME280;59071;42.138;24.768;2023-03-14T07:07:52;99991.09;;;15.41;31.02
71151;BME280;59071;42.138;24.768;2023-03-14T07:10:17;99990.03;;;14.81;30.99
71151;BME280;59071;42.138;24.768;2023-03-14T07:12:42;99981.50;;;15.33;30.84
71151;BME280;59071;42.138;24.768;2023-03-14T07:15:08;99983.19;;;15.58;30.43
71151;BME280;59071;42.138;24.768;2023-03-14T07:17:33;99985.59;;;15.36;30.80
71151;BME280;59071;42.138;24.768;2023-03-14T07:19:59;99977.81;;;15.46;30.71
71151;BME280;59071;42.138;24.768;2023-03-14T07:22:24;99970.00;;;15.56;30.39
71151;BME280;59071;42.138;24.768;2023-03-14T07:24:49;99964.59;;;15.75;30.08
71151;BME280;59071;42.138;24.768;2023-03-14T07:27:15;99956.22;;;16.59;29.63
71151;BME280;59071;42.138;24.768;2023-03-14T07:29:40;99957.38;;;16.63;29.18
71151;BME280;59071;42.138;24.768;2023-03-14T07:32:05;99959.19;;;16.22;29.17
71151;BME280;59071;42.138;24.768;2023-03-14T07:34:31;99951.63;;;15.83;29.81
71151;BME280;59071;42.138;24.768;2023-03-14T07:36:56;99961.41;;;15.12;30.79
71151;BME280;59071;42.138;24.768;2023-03-14T07:39:21;99957.25;;;16.06;30.21
71151;BME280;59071;42.138;24.768;2023-03-14T07:41:46;99952.88;;;16.80;29.10
71151;BME280;59071;42.138;24.768;2023-03-14T07:44:12;99954.69;;;16.63;29.05
71151;BME280;59071;42.138;24.768;2023-03-14T07:46:37;99953.50;;;17.28;28.22
71151;BME280;59071;42.138;24.768;2023-03-14T07:49:02;99953.75;;;17.27;28.84
71151;BME280;59071;42.138;24.768;2023-03-14T07:51:28;99953.13;;;17.53;28.35
71151;BME280;59071;42.138;24.768;2023-03-14T07:53:53;99948.16;;;17.62;27.56
71151;BME280;59071;42.138;24.768;2023-03-14T07:56:18;99952.97;;;17.94;27.27
71151;BME280;59071;42.138;24.768;2023-03-14T07:58:43;99941.69;;;17.12;27.17
71151;BME280;59071;42.138;24.768;2023-03-14T08:01:09;99949.34;;;18.22;26.14
71151;BME280;59071;42.138;24.768;2023-03-14T08:03:34;99938.31;;;18.68;25.87
71151;BME280;59071;42.138;24.768;2023-03-14T08:05:59;99937.81;;;18.93;25.09
71151;BME280;59071;42.138;24.768;2023-03-14T08:08:25;99934.03;;;17.38;26.33
71151;BME280;59071;42.138;24.768;2023-03-14T08:10:50;99926.28;;;14.72;29.35
71151;BME280;59071;42.138;24.768;2023-03-14T08:13:15;99930.94;;;15.60;28.17
71151;BME280;59071;42.138;24.768;2023-03-14T08:15:40;99917.06;;;16.22;28.42
71151;BME280;59071;42.138;24.768;2023-03-14T08:18:06;99929.22;;;16.66;27.81
71151;BME280;59071;42.138;24.768;2023-03-14T08:20:31;99926.97;;;16.22;27.88
71151;BME280;59071;42.138;24.768;2023-03-14T08:22:57;99928.34;;;16.48;28.35
71151;BME280;59071;42.138;24.768;2023-03-14T08:25:23;99925.25;;;17.76;27.13
71151;BME280;59071;42.138;24.768;2023-03-14T08:27:48;99927.75;;;17.32;26.97
71151;BME280;59071;42.138;24.768;2023-03-14T08:30:14;99915.66;;;18.42;26.28
71151;BME280;59071;42.138;24.768;2023-03-14T08:32:40;99917.59;;;17.34;27.33
71151;BME280;59071;42.138;24.768;2023-03-14T08:35:06;99918.75;;;15.88;29.40
71151;BME280;59071;42.138;24.768;2023-03-14T08:37:31;99916.50;;;16.61;28.13
71151;BME280;59071;42.138;24.768;2023-03-14T08:39:57;99919.50;;;18.07;26.94
71151;BME280;59071;42.138;24.768;2023-03-14T08:42:22;99904.25;;;19.06;26.10
71151;BME280;59071;42.138;24.768;2023-03-14T08:44:47;99904.88;;;19.50;25.23
71151;BME280;59071;42.138;24.768;2023-03-14T08:47:13;99901.13;;;19.19;24.83
71151;BME280;59071;42.138;24.768;2023-03-14T08:49:38;99894.44;;;18.72;25.72
71151;BME280;59071;42.138;24.768;2023-03-14T08:52:04;99889.44;;;19.78;24.74
71151;BME280;59071;42.138;24.768;2023-03-14T08:54:29;99882.78;;;19.59;24.28
71151;BME280;59071;42.138;24.768;2023-03-14T08:56:55;99880.41;;;19.67;23.80
71151;BME280;59071;42.138;24.768;2023-03-14T08:59:20;99867.00;;;18.53;25.24
71151;BME280;59071;42.138;24.768;2023-03-14T09:01:45;99875.09;;;19.72;23.64
71151;BME280;59071;42.138;24.768;2023-03-14T09:04:10;99852.94;;;20.28;23.01
71151;BME280;59071;42.138;24.768;2023-03-14T09:06:36;99855.72;;;19.91;23.22
71151;BME280;59071;42.138;24.768;2023-03-14T09:09:01;99855.81;;;18.67;24.33
71151;BME280;59071;42.138;24.768;2023-03-14T09:11:27;99844.84;;;18.73;24.02
71151;BME280;59071;42.138;24.768;2023-03-14T09:13:52;99841.25;;;18.41;24.28
71151;BME280;59071;42.138;24.768;2023-03-14T09:16:17;99832.19;;;18.03;24.85
71151;BME280;59071;42.138;24.768;2023-03-14T09:18:42;99832.09;;;17.92;25.00
71151;BME280;59071;42.138;24.768;2023-03-14T09:21:08;99825.78;;;18.80;24.17
71151;BME280;59071;42.138;24.768;2023-03-14T09:23:33;99818.84;;;19.22;24.11
71151;BME280;59071;42.138;24.768;2023-03-14T09:25:59;99820.13;;;18.05;24.99
71151;BME280;59071;42.138;24.768;2023-03-14T09:28:24;99814.97;;;17.26;26.08
71151;BME280;59071;42.138;24.768;2023-03-14T09:30:50;99809.19;;;17.73;25.32
71151;BME280;59071;42.138;24.768;2023-03-14T09:33:15;99804.72;;;18.50;24.87
71151;BME280;59071;42.138;24.768;2023-03-14T09:35:41;99797.72;;;18.00;25.68
71151;BME280;59071;42.138;24.768;2023-03-14T09:38:06;99790.91;;;17.36;25.88
71151;BME280;59071;42.138;24.768;2023-03-14T09:40:33;99783.72;;;17.42;25.41
71151;BME280;59071;42.138;24.768;2023-03-14T09:42:59;99789.84;;;18.74;24.34
71151;BME280;59071;42.138;24.768;2023-03-14T09:47:53;99786.34;;;19.44;23.37
71151;BME280;59071;42.138;24.768;2023-03-14T09:50:20;99780.81;;;18.31;24.24
71151;BME280;59071;42.138;24.768;2023-03-14T09:52:46;99775.28;;;19.03;23.92
71151;BME280;59071;42.138;24.768;2023-03-14T09:55:13;99773.81;;;19.22;24.12
71151;BME280;59071;42.138;24.768;2023-03-14T09:57:40;99780.28;;;19.69;23.71
71151;BME280;59071;42.138;24.768;2023-03-14T10:00:12;99772.84;;;19.97;23.30
71151;BME280;59071;42.138;24.768;2023-03-14T10:02:40;99771.28;;;19.53;23.76
71151;BME280;59071;42.138;24.768;2023-03-14T10:05:07;99773.13;;;20.00;23.53
71151;BME280;59071;42.138;24.768;2023-03-14T10:07:38;99771.88;;;19.60;23.55
71151;BME280;59071;42.138;24.768;2023-03-14T10:10:13;99763.72;;;20.13;23.22
71151;BME280;59071;42.138;24.768;2023-03-14T10:12:40;99753.47;;;19.04;24.18
71151;BME280;59071;42.138;24.768;2023-03-14T10:17:40;99735.41;;;19.05;24.16
71151;BME280;59071;42.138;24.768;2023-03-14T10:20:05;99730.00;;;19.05;24.01
71151;BME280;59071;42.138;24.768;2023-03-14T10:22:31;99735.94;;;18.15;24.44
71151;BME280;59071;42.138;24.768;2023-03-14T10:24:57;99726.75;;;17.67;25.56
71151;BME280;59071;42.138;24.768;2023-03-14T10:27:29;99705.53;;;17.70;25.74
71151;BME280;59071;42.138;24.768;2023-03-14T10:29:56;99704.53;;;18.53;25.00
71151;BME280;59071;42.138;24.768;2023-03-14T10:32:22;99709.13;;;18.58;24.52
71151;BME280;59071;42.138;24.768;2023-03-14T10:37:34;99693.75;;;18.53;24.98
71151;BME280;59071;42.138;24.768;2023-03-14T10:40:00;99692.41;;;18.88;24.77
71151;BME280;59071;42.138;24.768;2023-03-14T10:42:31;99681.75;;;18.39;25.58
71151;BME280;59071;42.138;24.768;2023-03-14T10:45:00;99681.63;;;18.55;25.63
71151;BME280;59071;42.138;24.768;2023-03-14T10:47:26;99674.28;;;17.86;26.28
71151;BME280;59071;42.138;24.768;2023-03-14T10:49:53;99642.50;;;17.61;26.05
71151;BME280;59071;42.138;24.768;2023-03-14T10:54:57;99654.31;;;19.22;24.31
71151;BME280;59071;42.138;24.768;2023-03-14T10:57:22;99645.75;;;19.45;24.20
71151;BME280;59071;42.138;24.768;2023-03-14T10:59:48;99642.78;;;18.84;25.28
71151;BME280;59071;42.138;24.768;2023-03-14T11:07:30;99602.66;;;17.14;26.02
71151;BME280;59071;42.138;24.768;2023-03-14T11:10:45;99622.78;;;17.11;26.69
71151;BME280;59071;42.138;24.768;2023-03-14T11:12:50;99606.16;;;17.14;26.73
71151;BME280;59071;42.138;24.768;2023-03-14T11:15:25;99568.94;;;17.28;25.92
71151;BME280;59071;42.138;24.768;2023-03-14T11:23:02;99581.22;;;19.23;23.61
71151;BME280;59071;42.138;24.768;2023-03-14T11:30:53;99549.56;;;17.26;26.27
71151;BME280;59071;42.138;24.768;2023-03-14T11:35:47;99531.88;;;17.08;26.17
71151;BME280;59071;42.138;24.768;2023-03-14T11:38:19;99535.34;;;16.09;27.88
71151;BME280;59071;42.138;24.768;2023-03-14T11:40:48;99530.91;;;16.53;27.30
71151;BME280;59071;42.138;24.768;2023-03-14T11:43:25;99521.72;;;16.71;26.93
71151;BME280;59071;42.138;24.768;2023-03-14T11:45:52;99510.56;;;16.40;27.52
71151;BME280;59071;42.138;24.768;2023-03-14T11:50:44;99499.44;;;17.42;27.34
71151;BME280;59071;42.138;24.768;2023-03-14T11:53:13;99501.50;;;16.25;27.72
71151;BME280;59071;42.138;24.768;2023-03-14T11:55:40;99482.78;;;17.18;27.13
71151;BME280;59071;42.138;24.768;2023-03-14T12:00:38;99473.25;;;17.05;27.38
71151;BME280;59071;42.138;24.768;2023-03-14T12:08:19;99434.19;;;17.57;27.19
71151;BME280;59071;42.138;24.768;2023-03-14T12:13:13;99426.81;;;17.15;27.70
71151;BME280;59071;42.138;24.768;2023-03-14T12:15:49;99413.91;;;17.76;27.08
71151;BME280;59071;42.138;24.768;2023-03-14T12:18:19;99412.00;;;17.39;27.67
71151;BME280;59071;42.138;24.768;2023-03-14T12:20:51;99397.22;;;17.79;27.11
71151;BME280;59071;42.138;24.768;2023-03-14T12:23:18;99394.44;;;16.99;28.17
71151;BME280;59071;42.138;24.768;2023-03-14T12:25:43;99386.97;;;16.79;28.53
71151;BME280;59071;42.138;24.768;2023-03-14T12:28:19;99384.59;;;17.10;28.77
71151;BME280;59071;42.138;24.768;2023-03-14T12:30:44;99385.16;;;17.12;28.12
71151;BME280;59071;42.138;24.768;2023-03-14T12:38:12;99369.31;;;17.53;28.11
71151;BME280;59071;42.138;24.768;2023-03-14T12:40:53;99367.03;;;17.72;28.00
71151;BME280;59071;42.138;24.768;2023-03-14T12:43:28;99373.03;;;18.32;27.69
71151;BME280;59071;42.138;24.768;2023-03-14T12:48:31;99355.78;;;18.28;27.26
71151;BME280;59071;42.138;24.768;2023-03-14T12:51:03;99349.03;;;18.26;27.67
71151;BME280;59071;42.138;24.768;2023-03-14T12:58:54;99345.19;;;19.31;26.46
71151;BME280;59071;42.138;24.768;2023-03-14T13:01:22;99361.38;;;18.11;27.68
71151;BME280;59071;42.138;24.768;2023-03-14T13:03:52;99341.00;;;17.83;28.32
71151;BME280;59071;42.138;24.768;2023-03-14T13:11:48;99340.88;;;17.63;27.89
71151;BME280;59071;42.138;24.768;2023-03-14T13:14:13;99329.41;;;17.40;28.57
71151;BME280;59071;42.138;24.768;2023-03-14T13:16:39;99330.47;;;17.02;29.03
71151;BME280;59071;42.138;24.768;2023-03-14T13:19:09;99312.22;;;16.76;29.10
71151;BME280;59071;42.138;24.768;2023-03-14T13:21:36;99312.75;;;17.00;28.87
71151;BME280;59071;42.138;24.768;2023-03-14T13:24:04;99310.84;;;17.01;29.08
71151;BME280;59071;42.138;24.768;2023-03-14T13:26:36;99306.78;;;17.73;27.88
71151;BME280;59071;42.138;24.768;2023-03-14T13:29:15;99299.66;;;18.00;27.88
71151;BME280;59071;42.138;24.768;2023-03-14T13:31:51;99305.47;;;18.60;26.95
71151;BME280;59071;42.138;24.768;2023-03-14T13:34:18;99297.19;;;17.88;27.69
71151;BME280;59071;42.138;24.768;2023-03-14T13:36:44;99294.34;;;18.15;27.19
71151;BME280;59071;42.138;24.768;2023-03-14T13:39:10;99292.50;;;17.30;28.32
71151;BME280;59071;42.138;24.768;2023-03-14T13:41:38;99276.44;;;16.44;29.43
71151;BME280;59071;42.138;24.768;2023-03-14T13:44:13;99276.06;;;16.30;29.50
71151;BME280;59071;42.138;24.768;2023-03-14T13:46:40;99261.81;;;17.21;28.60
71151;BME280;59071;42.138;24.768;2023-03-14T13:49:06;99256.88;;;16.21;30.68
71151;BME280;59071;42.138;24.768;2023-03-14T13:51:34;99254.41;;;16.41;29.86
71151;BME280;59071;42.138;24.768;2023-03-14T13:53:59;99255.03;;;16.49;30.23
71151;BME280;59071;42.138;24.768;2023-03-14T13:56:26;99247.25;;;16.79;29.33